Flight Track Log - Related Links

Times and Time Zones

All times are in EDT time to prevent confusion due to time zone crossing. See the UPS1083 flight status page for this flight to view local times or setup timezone preferences in your user account.

Time Position Orientation Groundspeed Altitude Reporting Facility
EDT Latitude Longitude Course Direction KTS MPH feet Rate Location/Type
Fri 10:32:57 PM 40.6167 -74.2000 270° West 233 268 2,300  Level New York TRACON
Fri 10:34:31 PM 40.5733 -74.3064 242° Southwest 255 293 5,300 2,329 Climbing New York Center
Fri 10:35:29 PM 40.5747 -74.3967 271° West 271 312 8,200 2,797 Climbing New York Center
Fri 10:36:29 PM 40.5814 -74.5119 274° West 286 329 10,800 2,430 Climbing New York Center
Fri 10:37:30 PM 40.5989 -74.6222 282° West 324 373 13,100 2,975 Climbing New York Center
Fri 10:38:00 PM 40.6833 -75.0234 270° West  Level FlightAware Approximate
Fri 10:38:30 PM 40.6044 -74.7672 273° West 363 418 16,800  Level New York Center
Fri 10:39:29 PM 40.5642 -74.9069 249° West 393 452 19,900 2,700 Climbing New York Center
Fri 10:40:30 PM 40.5194 -75.0492 248° West 405 466 22,200 2,164 Climbing New York Center
Fri 10:41:31 PM 40.4719 -75.2044 248° West 434 499 24,300 2,231 Climbing New York Center
Fri 10:42:31 PM 40.4200 -75.3672 247° West 465 535 26,700 2,339 Climbing New York Center
Fri 10:43:29 PM 40.3678 -75.5300 247° West 479 551 28,900 2,672 Climbing New York Center
Fri 10:44:30 PM 40.3172 -75.6925 248° West 489 563 32,000 2,269 Climbing New York Center
Fri 10:45:28 PM 40.2644 -75.8575 247° West 489 563 33,400 1,800 Climbing New York Center
Fri 10:46:30 PM 40.2144 -75.9981 245° Southwest 489 563 35,600 1,300 Climbing New York Center
Fri 10:47:28 PM 40.1675 -76.1628 250° West 472 543 36,000 202 Climbing New York Center
Fri 10:48:29 PM 40.1133 -76.2944 242° Southwest 461 531 36,000  Level New York Center
Fri 10:49:29 PM 40.0525 -76.4361 241° Southwest 455 524 36,000  Level New York Center
Fri 10:51:36 PM 39.9208 -76.7222 239° Southwest 443 510 36,000  Level Washington Center
Fri 10:52:36 PM 39.8444 -76.8778 237° Southwest 456 525 36,000  Level Washington Center
Fri 10:53:37 PM 39.7781 -77.0197 239° Southwest 461 531 36,000  Level Washington Center
Fri 10:54:36 PM 39.7117 -77.1614 239° Southwest 466 536 36,000  Level Washington Center
Fri 10:55:36 PM 39.6431 -77.3053 238° Southwest 466 536 36,000  Level Washington Center
Fri 10:56:36 PM 39.5764 -77.4492 239° Southwest 475 547 36,000  Level Washington Center
Fri 10:57:37 PM 39.5097 -77.5900 239° Southwest 465 535 36,000  Level Washington Center
Fri 10:58:37 PM 39.4425 -77.7281 238° Southwest 465 535 36,000  Level Washington Center
Fri 10:59:38 PM 39.3775 -77.8736 240° Southwest 465 535 36,000  Level Washington Center
Fri 11:00:38 PM 39.3183 -78.0222 243° Southwest 465 535 36,000  Level Washington Center
Fri 11:01:39 PM 39.2589 -78.1731 243° Southwest 465 535 36,000  Level Washington Center
Fri 11:02:37 PM 39.1994 -78.3208 243° Southwest 470 541 36,000  Level Washington Center
Fri 11:03:38 PM 39.1375 -78.4711 242° Southwest 470 541 36,000  Level Washington Center
Fri 11:04:38 PM 39.0775 -78.6239 243° Southwest 475 547 36,000  Level Washington Center
Fri 11:05:37 PM 39.0150 -78.7761 242° Southwest 480 552 36,000  Level Washington Center
Fri 11:06:37 PM 38.9547 -78.9231 242° Southwest 480 552 36,000  Level Washington Center
Fri 11:07:37 PM 38.8922 -79.0750 242° Southwest 480 552 36,000  Level Washington Center
Fri 11:08:38 PM 38.8375 -79.2269 245° Southwest 480 552 36,000  Level Washington Center
Fri 11:09:38 PM 38.8078 -79.3828 256° West 460 529 36,000  Level Washington Center
Fri 11:10:36 PM 38.7792 -79.5594 258° West 459 528 36,000  Level Washington Center
Fri 11:11:37 PM 38.7511 -79.7153 257° West 459 528 36,000  Level Washington Center
Fri 11:12:36 PM 38.7228 -79.8681 257° West 459 528 36,000  Level Washington Center
Fri 11:13:36 PM 38.6967 -80.0075 257° West 454 522 36,000  Level Washington Center
Fri 11:14:35 PM 38.6617 -80.1633 254° West 446 513 36,000  Level Indianapolis Center
Fri 11:15:36 PM 38.6331 -80.3158 257° West 441 507 36,000  Level Indianapolis Center
Fri 11:16:37 PM 38.6061 -80.4658 257° West 435 501 36,000  Level Indianapolis Center
Fri 11:17:38 PM 38.5778 -80.6147 256° West 432 497 36,000  Level Indianapolis Center
Fri 11:18:40 PM 38.5494 -80.7622 256° West 428 493 36,000  Level Indianapolis Center
Fri 11:19:41 PM 38.5208 -80.9086 256° West 424 488 36,000  Level Indianapolis Center
Fri 11:20:42 PM 38.4928 -81.0547 256° West 423 487 36,000  Level Indianapolis Center
Fri 11:21:43 PM 38.4633 -81.2011 256° West 422 486 36,000  Level Indianapolis Center
Fri 11:22:44 PM 38.4336 -81.3489 256° West 425 489 36,000  Level Indianapolis Center
Fri 11:23:45 PM 38.4053 -81.4969 256° West 425 489 36,000  Level Indianapolis Center
Fri 11:24:46 PM 38.3750 -81.6439 255° West 424 488 36,000  Level Indianapolis Center
Fri 11:25:47 PM 38.3464 -81.7894 256° West 421 484 36,000  Level Indianapolis Center
Fri 11:26:48 PM 38.3158 -81.9358 255° West 425 489 36,000  Level Indianapolis Center
Fri 11:27:49 PM 38.2853 -82.0817 255° West 425 489 36,000  Level Indianapolis Center
Fri 11:28:50 PM 38.2558 -82.2286 256° West 429 494 36,000  Level Indianapolis Center
Fri 11:29:51 PM 38.2247 -82.3750 255° West 426 490 36,000  Level Indianapolis Center
Fri 11:30:52 PM 38.1883 -82.5511 255° West 427 491 36,000  Level Indianapolis Center
Fri 11:31:53 PM 38.1572 -82.6975 255° West 430 495 36,000  Level Indianapolis Center
Fri 11:32:54 PM 38.1261 -82.8447 255° West 433 498 36,000  Level Indianapolis Center
Fri 11:33:55 PM 38.0953 -82.9908 255° West 430 495 36,000  Level Indianapolis Center
Fri 11:34:56 PM 38.0625 -83.1378 254° West 433 498 36,000 -246 Level Indianapolis Center
Fri 11:35:57 PM 38.0317 -83.2847 255° West 433 498 35,500 -1,328 Descending Indianapolis Center
Fri 11:36:58 PM 37.9989 -83.4319 254° West 433 498 33,300 -2,262 Descending Indianapolis Center
Fri 11:37:59 PM 37.9625 -83.5939 254° West 477 549 30,900 -2,066 Descending Indianapolis Center
Fri 11:39:00 PM 37.9261 -83.7606 255° West 490 564 29,100 -1,574 Descending Indianapolis Center
Fri 11:40:01 PM 37.8886 -83.9289 254° West 496 571 27,700 -1,475 Descending Indianapolis Center
Fri 11:41:02 PM 37.8503 -84.0964 254° West 497 572 26,100 -2,016 Descending Indianapolis Center
Fri 11:42:03 PM 37.8094 -84.2778 254° West 457 526 23,600 -2,727 Descending Indianapolis Center
Fri 11:43:03 PM 37.7622 -84.4167 247° West 439 505 20,600 -2,777 Descending Indianapolis Center
Fri 11:44:04 PM 37.7069 -84.5428 241° Southwest 416 479 18,000 -2,508 Descending Indianapolis Center
Fri 11:45:05 PM 37.6542 -84.6661 242° Southwest 406 467 15,500 -2,361 Descending Indianapolis Center
Fri 11:46:06 PM 37.6303 -84.7919 257° West 383 441 13,200 -2,213 Descending Indianapolis Center
Fri 11:47:07 PM 37.6486 -84.9192 280° West 370 426 11,000 -1,574 Descending Indianapolis Center
Fri 11:48:08 PM 37.7050 -85.0225 305° West 370 426 10,000 -595 Descending Indianapolis Center
Fri 11:49:08 PM 37.7650 -85.1164 309° West 347 399 9,800 -298 Descending Indianapolis Center
Fri 11:50:09 PM 37.7964 -85.2114 293° West 293 337 9,400 -885 Descending Indianapolis Center
Fri 11:51:10 PM 37.8289 -85.2981 295° West 276 318 8,000 -1,426 Descending Indianapolis Center
Fri 11:52:11 PM 37.8583 -85.3850 293° West 273 314 6,500 -1,377 Descending Indianapolis Center
Fri 11:53:12 PM 37.8906 -85.4739 295° West 277 319 5,200 -984 Descending Indianapolis Center
Fri 11:54:13 PM 37.9225 -85.5544 297° West 266 306 4,500 -595 Descending Indianapolis Center
Fri 11:55:13 PM 37.9450 -85.6208 293° West 228 262 4,000 -248 Descending Indianapolis Center
Fri 11:56:14 PM 37.9686 -85.6797 297° West 204 235 4,000 -344 Level Indianapolis Center
Fri 11:57:15 PM 38.0161 -85.6928 348° North 185 213 3,300 -787 Descending Indianapolis Center
Fri 11:58:16 PM 38.0622 -85.7075 346° North 177 204 2,400 -893 Descending Indianapolis Center
Fri 11:59:16 PM 38.1064 -85.7217 346° North 170 196 1,500 -900 Descending Indianapolis Center
Sat 12:01:00 AM 38.1741 -85.7365 211° Southwest  Level Estimated
Sat 12:08:00 AM 38.1741 -85.7365 208° Southwest  Level Estimated

Login

Don't have an account? Register now (free) for customized features, flight alerts, and more!